createdAt,value
2022-08-18T00:03:56.255Z,86.20
2022-08-18T00:09:06.732Z,86.20
2022-08-18T00:14:11.995Z,86.20
2022-08-18T00:19:43.700Z,86.10
2022-08-18T00:24:53.036Z,86.30
2022-08-18T00:29:57.133Z,86.10
2022-08-18T00:35:07.120Z,86.10
2022-08-18T00:40:13.798Z,86.40
2022-08-18T00:45:20.512Z,86.40
2022-08-18T00:50:31.664Z,86.40
2022-08-18T00:55:35.182Z,86.60
2022-08-18T01:00:38.560Z,86.50
2022-08-18T01:05:48.057Z,86.50
2022-08-18T01:10:51.138Z,86.70
2022-08-18T01:15:53.611Z,86.60
2022-08-18T01:21:04.888Z,86.60
2022-08-18T01:26:09.585Z,86.70
2022-08-18T01:31:28.738Z,86.60
2022-08-18T01:36:31.591Z,86.70
2022-08-18T01:41:35.654Z,86.80
2022-08-18T01:46:41.004Z,87.10
2022-08-18T01:51:43.438Z,87.40
2022-08-18T01:56:47.925Z,87.50
2022-08-18T02:01:53.439Z,88.70
2022-08-18T02:06:56.218Z,87.80
2022-08-18T02:12:01.396Z,87.70
2022-08-18T02:17:06.150Z,87.80
2022-08-18T02:22:10.423Z,87.90
2022-08-18T02:27:16.052Z,87.90
2022-08-18T02:32:18.632Z,88.00
2022-08-18T02:37:21.048Z,87.90
2022-08-18T02:42:24.906Z,87.80
2022-08-18T02:47:31.518Z,87.90
2022-08-18T02:52:36.476Z,88.00
2022-08-18T02:57:45.212Z,87.90
2022-08-18T03:02:48.096Z,88.20
2022-08-18T03:07:51.051Z,88.10
2022-08-18T03:12:55.108Z,88.30
2022-08-18T03:17:59.913Z,88.40
2022-08-18T03:23:09.566Z,88.50
2022-08-18T03:28:14.739Z,88.40
2022-08-18T03:33:17.182Z,88.60
2022-08-18T03:38:19.796Z,88.60
2022-08-18T03:43:51.087Z,88.70
2022-08-18T03:48:46.760Z,88.80
2022-08-18T03:53:50.253Z,88.80
2022-08-18T03:58:56.522Z,88.70
2022-08-18T04:04:01.609Z,88.50
2022-08-18T04:09:06.198Z,88.40
2022-08-18T04:14:10.499Z,88.40
2022-08-18T04:19:13.470Z,88.50
2022-08-18T04:24:16.232Z,88.60
2022-08-18T04:29:21.508Z,88.60
2022-08-18T04:34:24.429Z,88.70
2022-08-18T04:39:27.004Z,88.50
2022-08-18T04:44:31.121Z,88.60
2022-08-18T04:49:33.727Z,88.60
2022-08-18T04:54:38.424Z,88.60
2022-08-18T04:59:46.216Z,88.70
2022-08-18T05:04:49.165Z,88.80
2022-08-18T05:09:52.073Z,88.80
2022-08-18T05:14:56.254Z,88.80
2022-08-18T05:20:00.789Z,88.90
2022-08-18T05:25:04.711Z,89.00
2022-08-18T05:30:10.926Z,89.10
2022-08-18T05:35:17.980Z,89.10
2022-08-18T05:40:23.160Z,89.00
2022-08-18T05:45:28.149Z,89.00
2022-08-18T05:50:35.078Z,89.30
2022-08-18T05:55:45.924Z,89.30
2022-08-18T06:00:59.783Z,89.30
2022-08-18T06:06:07.679Z,89.40
2022-08-18T06:11:22.134Z,89.40
2022-08-18T06:16:39.512Z,89.30
2022-08-18T06:21:51.087Z,89.50
2022-08-18T06:27:00.935Z,89.30
2022-08-18T06:32:14.210Z,89.30
2022-08-18T06:37:24.134Z,89.40
2022-08-18T06:42:28.414Z,89.30
2022-08-18T06:47:43.356Z,89.20
2022-08-18T06:52:54.094Z,89.60
2022-08-18T06:57:59.355Z,89.80
2022-08-18T07:03:06.946Z,89.60
2022-08-18T07:08:16.074Z,89.40
2022-08-18T07:13:27.388Z,88.90
2022-08-18T07:18:31.477Z,88.50
2022-08-18T07:23:37.035Z,88.60
2022-08-18T07:28:42.820Z,88.60
2022-08-18T07:33:54.470Z,88.70
2022-08-18T07:39:04.106Z,88.10
2022-08-18T07:44:15.303Z,88.70
2022-08-18T07:49:22.481Z,89.40
2022-08-18T07:54:50.361Z,87.60
2022-08-18T08:00:02.157Z,85.90
2022-08-18T08:05:18.040Z,86.00
2022-08-18T08:10:32.265Z,86.20
2022-08-18T08:15:46.821Z,84.40
2022-08-18T08:20:55.412Z,81.40
2022-08-18T08:26:10.560Z,80.00
2022-08-18T08:31:36.991Z,78.70
2022-08-18T08:36:45.125Z,78.20
2022-08-18T08:41:54.019Z,78.30
2022-08-18T08:47:23.313Z,78.40
2022-08-18T08:52:35.128Z,78.60
2022-08-18T08:57:42.654Z,78.80
2022-08-18T09:02:59.892Z,79.20
2022-08-18T09:08:33.954Z,79.50
2022-08-18T09:13:54.911Z,79.90
2022-08-18T09:19:30.656Z,80.30
2022-08-18T09:24:45.300Z,79.90
2022-08-18T09:29:53.371Z,80.40
2022-08-18T09:35:07.470Z,80.70
2022-08-18T09:40:15.388Z,80.60
2022-08-18T09:45:53.344Z,80.60
2022-08-18T09:50:59.810Z,79.70
2022-08-18T09:56:05.781Z,80.50
2022-08-18T10:01:38.253Z,80.20
2022-08-18T10:12:33.088Z,80.00
2022-08-18T10:17:49.974Z,80.50
2022-08-18T10:22:53.743Z,80.90
2022-08-18T10:27:58.538Z,80.70
2022-08-18T10:33:15.215Z,80.60
2022-08-18T10:38:49.239Z,80.30
2022-08-18T10:43:57.819Z,79.80
2022-08-18T10:49:05.281Z,80.10
2022-08-18T10:54:18.389Z,80.20
2022-08-18T10:59:31.150Z,79.40
2022-08-18T11:04:59.273Z,78.80
2022-08-18T11:10:32.607Z,80.00
2022-08-18T11:15:57.728Z,77.70
2022-08-18T11:21:22.687Z,77.30
2022-08-18T11:26:30.785Z,76.40
2022-08-18T11:31:35.056Z,77.00
2022-08-18T11:36:41.032Z,77.40
2022-08-18T11:41:52.880Z,77.50
2022-08-18T11:47:12.603Z,77.40
2022-08-18T11:52:26.298Z,76.90
2022-08-18T11:57:50.963Z,77.90
2022-08-18T12:03:04.300Z,76.80
2022-08-18T12:08:50.511Z,76.60
2022-08-18T12:13:44.003Z,76.70
2022-08-18T12:18:50.707Z,77.20
2022-08-18T12:23:56.349Z,77.10
2022-08-18T12:29:01.569Z,77.30
2022-08-18T12:34:06.423Z,77.30
2022-08-18T12:39:16.792Z,77.00
2022-08-18T12:44:19.345Z,77.10
2022-08-18T12:49:25.407Z,77.10
2022-08-18T12:54:29.783Z,76.60
2022-08-18T12:59:37.486Z,77.10
2022-08-18T13:04:41.952Z,76.80
2022-08-18T13:09:53.272Z,76.00
2022-08-18T13:14:59.366Z,75.70
2022-08-18T13:20:07.784Z,75.30
2022-08-18T13:25:13.515Z,75.20
2022-08-18T13:30:35.911Z,75.70
2022-08-18T13:35:44.523Z,75.60
2022-08-18T13:40:48.056Z,74.50
2022-08-18T13:45:52.786Z,73.80
2022-08-18T13:51:01.889Z,73.30
2022-08-18T13:56:05.107Z,72.40
2022-08-18T14:01:41.990Z,72.90
2022-08-18T14:06:35.225Z,72.70
2022-08-18T14:11:38.469Z,72.00
2022-08-18T14:16:44.028Z,72.00
2022-08-18T14:21:51.000Z,73.20
2022-08-18T14:26:53.962Z,71.90
2022-08-18T14:31:57.557Z,73.30
2022-08-18T14:37:01.622Z,72.40
2022-08-18T14:42:04.530Z,72.00
2022-08-18T14:47:09.292Z,71.90
2022-08-18T14:52:15.474Z,72.10
2022-08-18T15:02:22.974Z,71.60
2022-08-18T15:07:27.239Z,71.30
2022-08-18T15:12:29.721Z,70.80
2022-08-18T15:17:35.336Z,70.70
2022-08-18T15:22:44.995Z,70.60
2022-08-18T15:27:52.407Z,70.20
2022-08-18T15:32:55.121Z,70.30
2022-08-18T15:37:59.309Z,70.40
2022-08-18T15:43:06.055Z,70.20
2022-08-18T15:48:13.612Z,70.00
2022-08-18T15:53:19.955Z,70.40
2022-08-18T15:58:26.723Z,70.10
2022-08-18T16:03:33.037Z,70.40
2022-08-18T16:08:38.567Z,69.90
2022-08-18T16:13:42.970Z,69.30
2022-08-18T16:18:47.359Z,69.70
2022-08-18T16:23:53.552Z,69.80
2022-08-18T16:28:57.538Z,69.70
2022-08-18T16:34:02.608Z,70.80
2022-08-18T16:39:06.774Z,69.70
2022-08-18T16:44:09.751Z,69.70
2022-08-18T16:49:12.783Z,70.00
2022-08-18T16:54:17.029Z,70.00
2022-08-18T16:59:19.764Z,70.10
2022-08-18T17:04:24.570Z,70.00
2022-08-18T17:09:28.870Z,70.10
2022-08-18T17:14:35.571Z,70.20
2022-08-18T17:19:38.186Z,70.20
2022-08-18T17:24:49.840Z,70.20
2022-08-18T17:30:00.470Z,70.40
2022-08-18T17:35:09.747Z,70.30
2022-08-18T17:40:24.132Z,70.00
2022-08-18T17:45:33.210Z,69.80
2022-08-18T17:50:41.149Z,70.20
2022-08-18T17:55:49.973Z,70.30
2022-08-18T18:00:52.605Z,70.50
2022-08-18T18:06:02.919Z,70.90
2022-08-18T18:11:12.403Z,70.80
2022-08-18T18:16:28.286Z,70.60
2022-08-18T18:22:00.761Z,70.70
2022-08-18T18:26:57.089Z,71.20
2022-08-18T18:32:02.796Z,71.20
2022-08-18T18:37:22.311Z,71.30
2022-08-18T18:42:29.572Z,71.50
2022-08-18T18:47:50.014Z,71.70
2022-08-18T18:53:06.304Z,72.00
2022-08-18T18:58:20.691Z,72.20
2022-08-18T19:03:32.204Z,72.50
2022-08-18T19:08:43.892Z,72.70
2022-08-18T19:13:54.532Z,73.00
2022-08-18T19:19:36.891Z,73.30
2022-08-18T19:24:26.737Z,73.50
2022-08-18T19:29:35.807Z,73.80
2022-08-18T19:34:52.577Z,74.10
2022-08-18T19:40:06.904Z,74.40
2022-08-18T19:45:25.355Z,74.80
2022-08-18T19:50:34.637Z,75.30
2022-08-18T19:55:50.346Z,75.30
2022-08-18T20:00:57.990Z,75.50
2022-08-18T20:06:34.311Z,75.60
2022-08-18T20:11:54.187Z,76.00
2022-08-18T20:17:15.563Z,76.10
2022-08-18T20:22:35.875Z,76.40
2022-08-18T20:27:40.667Z,76.40
2022-08-18T20:32:44.702Z,76.20
2022-08-18T20:37:47.422Z,76.30
2022-08-18T20:42:57.393Z,76.50
2022-08-18T20:48:32.629Z,76.80
2022-08-18T20:54:13.464Z,77.60
2022-08-18T20:59:20.607Z,77.70
2022-08-18T21:04:52.369Z,77.40
2022-08-18T21:09:59.722Z,77.80
2022-08-18T21:15:10.077Z,77.50
2022-08-18T21:20:16.529Z,77.80
2022-08-18T21:25:19.813Z,77.80
2022-08-18T21:30:25.198Z,77.60
2022-08-18T21:35:33.204Z,77.60
2022-08-18T21:40:39.905Z,77.60
2022-08-18T21:45:48.880Z,77.80
2022-08-18T21:50:57.973Z,77.90
2022-08-18T21:56:03.386Z,78.20
2022-08-18T22:01:13.063Z,78.10
2022-08-18T22:06:26.324Z,78.30
2022-08-18T22:11:47.329Z,78.60
2022-08-18T22:17:28.509Z,78.70
2022-08-18T22:22:35.211Z,79.10
2022-08-18T22:27:38.111Z,78.70
2022-08-18T22:32:40.592Z,78.60
2022-08-18T22:37:50.602Z,78.50
2022-08-18T22:42:53.834Z,78.70
2022-08-18T22:47:56.792Z,79.80
2022-08-18T22:53:00.936Z,79.00
2022-08-18T22:58:03.666Z,79.20
2022-08-18T23:03:07.956Z,79.20
2022-08-18T23:08:12.005Z,79.10
2022-08-18T23:13:14.526Z,79.30
2022-08-18T23:18:18.952Z,79.40
2022-08-18T23:23:23.760Z,79.70
2022-08-18T23:28:27.655Z,80.10
2022-08-18T23:33:30.201Z,80.30
2022-08-18T23:38:34.908Z,80.30
2022-08-18T23:43:37.405Z,80.30
2022-08-18T23:48:40.044Z,80.30
2022-08-18T23:53:44.039Z,80.30
2022-08-18T23:58:53.971Z,80.20
